Main page
METAR-TAF:

METAR-TAF

Airports :

Tulln an der Donau, Austria

Military airbase

latitude: 48-19N, longitude: 016-07E, elevation: 175 m

METAR: missing

Time: 00:40 (22:40 UTC)

Forecast

The report was made 11 hours and 25 minutes ago, at 11:15 UTC
Forecast valid from 23 at 12 UTC to 23 at 21 UTC
Wind 5 kt from variable directions
Visibility 10 km or more
Few clouds at a height of 5000 ft
Temporary
from 23 at 12 UTC to 23 at 18 UTC
Wind 10 kt from the West
Scattered clouds at a height of 4000 ft
Few clouds at a height of 5000 ft, Cumulonimbus.
Broken clouds at a height of 6000 ft
Probability 30% :
Temporary
from 23 at 12 UTC to 23 at 16 UTC
Visibility: 5000 m
thunderstorm, rain

TAF: LOXT 231115Z 2312/2321 VRB05KT 9999 FEW050 TEMPO 2312/2318 26010KT SCT040 FEW050CB BKN060 PROB30 TEMPO 2312/2316 5000 TSRA

Weather observations and forecasts of more than 4000 airports (METAR and TAF reports).

The available stations are represented by yellow and red dots on the map.

Hover mouse over dot to see the name of the station.

Then click to see weather observations and forecasts.

To change the map : click on the green buttons with a black cross to zoom in, on the green button with a dash to zoom out, or on the green arrows for adjacent maps.


METAR-TAF: